sensor_id;sensor_type;location;lat;lon;timestamp;pressure;altitude;pressure_sealevel;temperature;humidity
77303;BME280;66363;49.828;7.856;2023-03-01T00:00:48;101302.97;;;-2.65;69.30
77303;BME280;66363;49.828;7.856;2023-03-01T00:03:14;101306.41;;;-2.76;69.95
77303;BME280;66363;49.828;7.856;2023-03-01T00:05:44;101307.25;;;-2.78;69.83
77303;BME280;66363;49.828;7.856;2023-03-01T00:08:09;101310.72;;;-2.79;70.40
77303;BME280;66363;49.828;7.856;2023-03-01T00:10:35;101302.91;;;-2.90;70.67
77303;BME280;66363;49.828;7.856;2023-03-01T00:13:02;101308.97;;;-2.89;70.66
77303;BME280;66363;49.828;7.856;2023-03-01T00:15:28;101304.63;;;-2.90;70.74
77303;BME280;66363;49.828;7.856;2023-03-01T00:17:53;101299.44;;;-2.86;70.18
77303;BME280;66363;49.828;7.856;2023-03-01T00:20:19;101299.41;;;-2.98;70.92
77303;BME280;66363;49.828;7.856;2023-03-01T00:22:45;101309.84;;;-2.90;70.96
77303;BME280;66363;49.828;7.856;2023-03-01T00:25:10;101302.88;;;-2.96;70.75
77303;BME280;66363;49.828;7.856;2023-03-01T00:27:36;101306.34;;;-2.98;70.77
77303;BME280;66363;49.828;7.856;2023-03-01T00:30:04;101300.25;;;-3.03;71.33
77303;BME280;66363;49.828;7.856;2023-03-01T00:32:30;101297.66;;;-2.99;70.57
77303;BME280;66363;49.828;7.856;2023-03-01T00:34:56;101302.00;;;-2.98;70.82
77303;BME280;66363;49.828;7.856;2023-03-01T00:37:21;101301.13;;;-2.98;70.53
77303;BME280;66363;49.828;7.856;2023-03-01T00:39:47;101302.88;;;-2.99;70.82
77303;BME280;66363;49.828;7.856;2023-03-01T00:42:13;101298.50;;;-3.06;71.29
77303;BME280;66363;49.828;7.856;2023-03-01T00:44:39;101297.63;;;-3.07;70.90
77303;BME280;66363;49.828;7.856;2023-03-01T00:47:06;101297.66;;;-3.05;71.30
77303;BME280;66363;49.828;7.856;2023-03-01T00:49:31;101281.19;;;-3.05;71.05
77303;BME280;66363;49.828;7.856;2023-03-01T00:51:57;101294.16;;;-3.10;70.91
77303;BME280;66363;49.828;7.856;2023-03-01T00:54:23;101290.69;;;-3.15;71.28
77303;BME280;66363;49.828;7.856;2023-03-01T00:56:48;101287.22;;;-3.17;71.20
77303;BME280;66363;49.828;7.856;2023-03-01T00:59:14;101294.19;;;-3.05;71.41
77303;BME280;66363;49.828;7.856;2023-03-01T01:01:40;101284.63;;;-3.11;71.28
77303;BME280;66363;49.828;7.856;2023-03-01T01:04:08;101284.66;;;-3.10;71.28
77303;BME280;66363;49.828;7.856;2023-03-01T01:06:37;101283.78;;;-3.13;71.60
77303;BME280;66363;49.828;7.856;2023-03-01T01:09:04;101289.81;;;-3.17;71.57
77303;BME280;66363;49.828;7.856;2023-03-01T01:11:30;101282.03;;;-3.20;72.10
77303;BME280;66363;49.828;7.856;2023-03-01T01:13:57;101275.97;;;-3.18;71.96
77303;BME280;66363;49.828;7.856;2023-03-01T01:16:25;101275.09;;;-3.24;72.30
77303;BME280;66363;49.828;7.856;2023-03-01T01:18:52;101273.28;;;-3.34;72.22
77303;BME280;66363;49.828;7.856;2023-03-01T01:21:21;101268.97;;;-3.40;73.00
77303;BME280;66363;49.828;7.856;2023-03-01T01:23:48;101270.69;;;-3.44;73.20
77303;BME280;66363;49.828;7.856;2023-03-01T01:26:15;101262.91;;;-3.44;73.61
77303;BME280;66363;49.828;7.856;2023-03-01T01:28:42;101251.66;;;-3.41;73.44
77303;BME280;66363;49.828;7.856;2023-03-01T01:31:08;101242.16;;;-3.37;73.24
77303;BME280;66363;49.828;7.856;2023-03-01T01:33:33;101241.31;;;-3.33;73.05
77303;BME280;66363;49.828;7.856;2023-03-01T01:35:59;101234.38;;;-3.34;73.14
77303;BME280;66363;49.828;7.856;2023-03-01T01:38:26;101233.50;;;-3.35;72.97
77303;BME280;66363;49.828;7.856;2023-03-01T01:40:52;101232.66;;;-3.32;73.44
77303;BME280;66363;49.828;7.856;2023-03-01T01:43:20;101236.13;;;-3.30;73.26
77303;BME280;66363;49.828;7.856;2023-03-01T01:45:47;101233.53;;;-3.27;72.80
77303;BME280;66363;49.828;7.856;2023-03-01T01:48:16;101233.53;;;-3.30;72.64
77303;BME280;66363;49.828;7.856;2023-03-01T01:50:44;101226.63;;;-3.27;72.75
77303;BME280;66363;49.828;7.856;2023-03-01T01:53:11;101224.94;;;-3.19;72.63
77303;BME280;66363;49.828;7.856;2023-03-01T01:55:43;101232.75;;;-3.13;72.26
77303;BME280;66363;49.828;7.856;2023-03-01T01:58:13;101224.03;;;-3.25;72.17
77303;BME280;66363;49.828;7.856;2023-03-01T02:00:41;101224.91;;;-3.23;72.34
77303;BME280;66363;49.828;7.856;2023-03-01T02:03:10;101229.25;;;-3.22;72.17
77303;BME280;66363;49.828;7.856;2023-03-01T02:05:40;101224.88;;;-3.31;72.59
77303;BME280;66363;49.828;7.856;2023-03-01T02:08:11;101211.94;;;-3.19;72.34
77303;BME280;66363;49.828;7.856;2023-03-01T02:10:40;101211.03;;;-3.33;72.42
77303;BME280;66363;49.828;7.856;2023-03-01T02:13:06;101208.44;;;-3.30;72.85
77303;BME280;66363;49.828;7.856;2023-03-01T02:15:33;101204.16;;;-3.22;72.40
77303;BME280;66363;49.828;7.856;2023-03-01T02:18:01;101204.13;;;-3.28;72.84
77303;BME280;66363;49.828;7.856;2023-03-01T02:20:31;101194.63;;;-3.21;72.65
77303;BME280;66363;49.828;7.856;2023-03-01T02:23:00;101197.22;;;-3.24;73.19
77303;BME280;66363;49.828;7.856;2023-03-01T02:25:40;101203.28;;;-3.22;73.28
77303;BME280;66363;49.828;7.856;2023-03-01T02:28:20;101192.91;;;-3.12;72.80
77303;BME280;66363;49.828;7.856;2023-03-01T02:30:48;101194.66;;;-3.15;72.87
77303;BME280;66363;49.828;7.856;2023-03-01T02:33:14;101190.34;;;-3.13;72.96
77303;BME280;66363;49.828;7.856;2023-03-01T02:35:40;101192.94;;;-3.16;72.99
77303;BME280;66363;49.828;7.856;2023-03-01T02:38:08;101183.41;;;-3.20;73.25
77303;BME280;66363;49.828;7.856;2023-03-01T02:40:34;101183.41;;;-3.14;73.41
77303;BME280;66363;49.828;7.856;2023-03-01T02:43:05;101183.41;;;-3.07;72.84
77303;BME280;66363;49.828;7.856;2023-03-01T02:45:34;101188.63;;;-3.02;72.82
77303;BME280;66363;49.828;7.856;2023-03-01T02:48:00;101179.97;;;-3.04;72.95
77303;BME280;66363;49.828;7.856;2023-03-01T02:50:45;101176.50;;;-3.01;73.00
77303;BME280;66363;49.828;7.856;2023-03-01T02:53:23;101176.47;;;-3.08;73.69
77303;BME280;66363;49.828;7.856;2023-03-01T02:55:53;101178.22;;;-3.05;73.22
77303;BME280;66363;49.828;7.856;2023-03-01T02:58:19;101180.84;;;-2.97;73.03
77303;BME280;66363;49.828;7.856;2023-03-01T03:00:46;101172.19;;;-2.99;73.31
77303;BME280;66363;49.828;7.856;2023-03-01T03:03:13;101166.97;;;-3.07;73.77
77303;BME280;66363;49.828;7.856;2023-03-01T03:05:39;101168.72;;;-3.01;73.09
77303;BME280;66363;49.828;7.856;2023-03-01T03:08:05;101163.53;;;-2.98;73.29
77303;BME280;66363;49.828;7.856;2023-03-01T03:10:32;101154.84;;;-3.03;73.63
77303;BME280;66363;49.828;7.856;2023-03-01T03:13:00;101145.34;;;-2.98;73.39
77303;BME280;66363;49.828;7.856;2023-03-01T03:15:27;101145.38;;;-2.94;73.23
77303;BME280;66363;49.828;7.856;2023-03-01T03:17:55;101146.22;;;-3.01;72.84
77303;BME280;66363;49.828;7.856;2023-03-01T03:20:25;101136.72;;;-2.93;73.09
77303;BME280;66363;49.828;7.856;2023-03-01T03:22:53;101135.84;;;-2.96;73.41
77303;BME280;66363;49.828;7.856;2023-03-01T03:25:20;101135.84;;;-2.96;73.54
77303;BME280;66363;49.828;7.856;2023-03-01T03:27:47;101134.97;;;-2.98;73.79
77303;BME280;66363;49.828;7.856;2023-03-01T03:30:15;101134.13;;;-2.91;73.59
77303;BME280;66363;49.828;7.856;2023-03-01T03:32:45;101130.63;;;-2.81;73.47
77303;BME280;66363;49.828;7.856;2023-03-01T03:35:12;101127.19;;;-2.74;73.35
77303;BME280;66363;49.828;7.856;2023-03-01T03:37:39;101126.31;;;-2.67;73.52
77303;BME280;66363;49.828;7.856;2023-03-01T03:40:05;101123.72;;;-2.73;74.12
77303;BME280;66363;49.828;7.856;2023-03-01T03:42:31;101122.00;;;-2.68;73.63
77303;BME280;66363;49.828;7.856;2023-03-01T03:44:57;101123.72;;;-2.61;73.41
77303;BME280;66363;49.828;7.856;2023-03-01T03:47:22;101128.06;;;-2.63;73.94
77303;BME280;66363;49.828;7.856;2023-03-01T03:49:48;101125.41;;;-2.57;73.64
77303;BME280;66363;49.828;7.856;2023-03-01T03:52:15;101119.34;;;-2.54;73.61
77303;BME280;66363;49.828;7.856;2023-03-01T03:54:41;101120.22;;;-2.46;73.94
77303;BME280;66363;49.828;7.856;2023-03-01T03:57:07;101111.56;;;-2.34;73.31
77303;BME280;66363;49.828;7.856;2023-03-01T03:59:33;101111.50;;;-2.24;73.07
77303;BME280;66363;49.828;7.856;2023-03-01T04:01:58;101105.41;;;-2.12;72.68
77303;BME280;66363;49.828;7.856;2023-03-01T04:04:24;101088.00;;;-1.96;71.45
77303;BME280;66363;49.828;7.856;2023-03-01T04:06:50;101088.84;;;-1.87;72.27
77303;BME280;66363;49.828;7.856;2023-03-01T04:09:17;101088.88;;;-1.96;71.93
77303;BME280;66363;49.828;7.856;2023-03-01T04:11:42;101093.19;;;-1.89;71.96
77303;BME280;66363;49.828;7.856;2023-03-01T04:14:08;101096.66;;;-1.85;71.93
77303;BME280;66363;49.828;7.856;2023-03-01T04:16:34;101092.31;;;-1.83;71.78
77303;BME280;66363;49.828;7.856;2023-03-01T04:19:00;101093.19;;;-1.84;71.72
77303;BME280;66363;49.828;7.856;2023-03-01T04:21:26;101089.66;;;-1.82;71.82
77303;BME280;66363;49.828;7.856;2023-03-01T04:23:51;101091.44;;;-1.85;72.06
77303;BME280;66363;49.828;7.856;2023-03-01T04:26:19;101095.78;;;-1.86;71.86
77303;BME280;66363;49.828;7.856;2023-03-01T04:28:45;101102.72;;;-1.88;71.59
77303;BME280;66363;49.828;7.856;2023-03-01T04:31:13;101100.13;;;-1.94;72.12
77303;BME280;66363;49.828;7.856;2023-03-01T04:33:39;101104.47;;;-1.96;72.24
77303;BME280;66363;49.828;7.856;2023-03-01T04:36:05;101099.28;;;-2.02;71.98
77303;BME280;66363;49.828;7.856;2023-03-01T04:38:31;101095.81;;;-2.01;72.03
77303;BME280;66363;49.828;7.856;2023-03-01T04:40:57;101101.94;;;-2.08;72.55
77303;BME280;66363;49.828;7.856;2023-03-01T04:43:24;101103.69;;;-2.13;72.91
77303;BME280;66363;49.828;7.856;2023-03-01T04:45:49;101101.09;;;-2.16;72.71
77303;BME280;66363;49.828;7.856;2023-03-01T04:48:15;101105.41;;;-2.14;72.90
77303;BME280;66363;49.828;7.856;2023-03-01T04:50:41;101098.50;;;-2.18;73.03
77303;BME280;66363;49.828;7.856;2023-03-01T04:53:06;101105.44;;;-2.17;72.47
77303;BME280;66363;49.828;7.856;2023-03-01T04:55:33;101106.28;;;-2.16;72.60
77303;BME280;66363;49.828;7.856;2023-03-01T04:57:59;101102.81;;;-2.17;72.32
77303;BME280;66363;49.828;7.856;2023-03-01T05:00:26;101103.69;;;-2.19;72.76
77303;BME280;66363;49.828;7.856;2023-03-01T05:02:53;101097.63;;;-2.14;72.15
77303;BME280;66363;49.828;7.856;2023-03-01T05:05:25;101101.97;;;-2.13;72.09
77303;BME280;66363;49.828;7.856;2023-03-01T05:07:53;101102.84;;;-2.18;72.05
77303;BME280;66363;49.828;7.856;2023-03-01T05:10:19;101104.56;;;-2.20;72.21
77303;BME280;66363;49.828;7.856;2023-03-01T05:12:45;101088.97;;;-2.29;72.29
77303;BME280;66363;49.828;7.856;2023-03-01T05:15:11;101089.84;;;-2.21;72.52
77303;BME280;66363;49.828;7.856;2023-03-01T05:17:38;101096.78;;;-2.28;72.86
77303;BME280;66363;49.828;7.856;2023-03-01T05:20:04;101095.94;;;-2.33;72.30
77303;BME280;66363;49.828;7.856;2023-03-01T05:22:30;101086.44;;;-2.37;72.64
77303;BME280;66363;49.828;7.856;2023-03-01T05:24:56;101095.97;;;-2.37;72.47
77303;BME280;66363;49.828;7.856;2023-03-01T05:27:21;101094.22;;;-2.45;73.02
77303;BME280;66363;49.828;7.856;2023-03-01T05:29:48;101100.31;;;-2.50;73.28
77303;BME280;66363;49.828;7.856;2023-03-01T05:32:13;101088.19;;;-2.50;73.22
77303;BME280;66363;49.828;7.856;2023-03-01T05:34:41;101092.50;;;-2.58;73.59
77303;BME280;66363;49.828;7.856;2023-03-01T05:37:10;101096.88;;;-2.60;73.88
77303;BME280;66363;49.828;7.856;2023-03-01T05:39:36;101096.88;;;-2.66;73.18
77303;BME280;66363;49.828;7.856;2023-03-01T05:42:01;101095.16;;;-2.62;74.08
77303;BME280;66363;49.828;7.856;2023-03-01T05:44:28;101093.41;;;-2.66;74.04
77303;BME280;66363;49.828;7.856;2023-03-01T05:46:54;101093.38;;;-2.57;73.99
77303;BME280;66363;49.828;7.856;2023-03-01T05:49:20;101089.03;;;-2.57;73.41
77303;BME280;66363;49.828;7.856;2023-03-01T05:51:50;101090.81;;;-2.63;73.70
77303;BME280;66363;49.828;7.856;2023-03-01T05:54:16;101096.88;;;-2.61;74.50
77303;BME280;66363;49.828;7.856;2023-03-01T05:56:42;101089.91;;;-2.59;73.66
77303;BME280;66363;49.828;7.856;2023-03-01T05:59:07;101091.69;;;-2.63;74.12
77303;BME280;66363;49.828;7.856;2023-03-01T06:01:34;101097.75;;;-2.64;74.33
77303;BME280;66363;49.828;7.856;2023-03-01T06:04:00;101092.50;;;-2.56;74.06
77303;BME280;66363;49.828;7.856;2023-03-01T06:06:25;101092.53;;;-2.68;74.48
77303;BME280;66363;49.828;7.856;2023-03-01T06:08:54;101093.41;;;-2.60;74.17
77303;BME280;66363;49.828;7.856;2023-03-01T06:11:20;101094.28;;;-2.69;74.73
77303;BME280;66363;49.828;7.856;2023-03-01T06:13:46;101090.81;;;-2.69;73.92
77303;BME280;66363;49.828;7.856;2023-03-01T06:16:12;101091.69;;;-2.78;74.56
77303;BME280;66363;49.828;7.856;2023-03-01T06:18:38;101090.81;;;-2.74;74.65
77303;BME280;66363;49.828;7.856;2023-03-01T06:21:04;101088.22;;;-2.79;74.63
77303;BME280;66363;49.828;7.856;2023-03-01T06:23:31;101097.75;;;-2.76;74.84
77303;BME280;66363;49.828;7.856;2023-03-01T06:25:58;101089.09;;;-2.78;74.32
77303;BME280;66363;49.828;7.856;2023-03-01T06:28:24;101089.97;;;-2.94;75.12
77303;BME280;66363;49.828;7.856;2023-03-01T06:30:50;101096.91;;;-2.87;74.92
77303;BME280;66363;49.828;7.856;2023-03-01T06:33:16;101091.69;;;-2.86;74.86
77303;BME280;66363;49.828;7.856;2023-03-01T06:35:41;101088.25;;;-2.88;74.52
77303;BME280;66363;49.828;7.856;2023-03-01T06:38:07;101086.47;;;-2.83;75.39
77303;BME280;66363;49.828;7.856;2023-03-01T06:40:33;101081.28;;;-2.78;75.12
77303;BME280;66363;49.828;7.856;2023-03-01T06:43:00;101081.28;;;-2.67;75.05
77303;BME280;66363;49.828;7.856;2023-03-01T06:45:26;101087.34;;;-2.73;75.15
77303;BME280;66363;49.828;7.856;2023-03-01T06:47:52;101083.88;;;-2.63;74.70
77303;BME280;66363;49.828;7.856;2023-03-01T06:50:18;101079.50;;;-2.50;74.51
77303;BME280;66363;49.828;7.856;2023-03-01T06:52:44;101074.31;;;-2.44;74.74
77303;BME280;66363;49.828;7.856;2023-03-01T06:55:09;101075.16;;;-2.36;74.50
77303;BME280;66363;49.828;7.856;2023-03-01T06:57:35;101072.53;;;-2.27;74.32
77303;BME280;66363;49.828;7.856;2023-03-01T07:00:02;101075.09;;;-2.15;72.93
77303;BME280;66363;49.828;7.856;2023-03-01T07:02:28;101065.47;;;-1.96;73.79
77303;BME280;66363;49.828;7.856;2023-03-01T07:04:54;101070.59;;;-1.81;73.60
77303;BME280;66363;49.828;7.856;2023-03-01T07:07:19;101070.50;;;-1.61;73.48
77303;BME280;66363;49.828;7.856;2023-03-01T07:09:45;101074.78;;;-1.55;72.61
77303;BME280;66363;49.828;7.856;2023-03-01T07:12:11;101072.97;;;-1.38;73.17
77303;BME280;66363;49.828;7.856;2023-03-01T07:14:36;101071.13;;;-1.28;71.26
77303;BME280;66363;49.828;7.856;2023-03-01T07:17:03;101076.25;;;-1.12;70.93
77303;BME280;66363;49.828;7.856;2023-03-01T07:19:29;101074.38;;;-0.97;71.04
77303;BME280;66363;49.828;7.856;2023-03-01T07:21:55;101069.03;;;-0.79;69.54
77303;BME280;66363;49.828;7.856;2023-03-01T07:24:21;101070.50;;;-0.54;68.02
77303;BME280;66363;49.828;7.856;2023-03-01T07:26:48;101065.88;;;-0.27;66.00
77303;BME280;66363;49.828;7.856;2023-03-01T07:29:14;101058.63;;;-0.01;66.70
77303;BME280;66363;49.828;7.856;2023-03-01T07:31:39;101066.34;;;0.04;66.40
77303;BME280;66363;49.828;7.856;2023-03-01T07:34:06;101056.69;;;0.13;65.15
77303;BME280;66363;49.828;7.856;2023-03-01T07:36:32;101057.44;;;0.23;65.25
77303;BME280;66363;49.828;7.856;2023-03-01T07:38:58;101054.56;;;0.41;65.01
77303;BME280;66363;49.828;7.856;2023-03-01T07:41:23;101046.47;;;0.58;63.81
77303;BME280;66363;49.828;7.856;2023-03-01T07:43:49;101050.81;;;0.57;63.71
77303;BME280;66363;49.828;7.856;2023-03-01T07:46:15;101054.66;;;0.92;62.96
77303;BME280;66363;49.828;7.856;2023-03-01T07:48:40;101049.06;;;2.04;60.68
77303;BME280;66363;49.828;7.856;2023-03-01T07:51:07;101050.75;;;3.52;54.74
77303;BME280;66363;49.828;7.856;2023-03-01T07:53:34;101046.44;;;4.68;51.84
77303;BME280;66363;49.828;7.856;2023-03-01T07:56:01;101045.84;;;5.64;48.20
77303;BME280;66363;49.828;7.856;2023-03-01T07:58:26;101037.75;;;6.19;46.10
77303;BME280;66363;49.828;7.856;2023-03-01T08:00:52;101039.16;;;6.72;44.62
77303;BME280;66363;49.828;7.856;2023-03-01T08:03:17;101041.00;;;7.33;42.56
77303;BME280;66363;49.828;7.856;2023-03-01T08:05:43;101043.13;;;7.45;42.37
77303;BME280;66363;49.828;7.856;2023-03-01T08:08:10;101030.44;;;7.33;40.98
77303;BME280;66363;49.828;7.856;2023-03-01T08:10:36;101036.50;;;7.55;40.64
77303;BME280;66363;49.828;7.856;2023-03-01T08:13:01;101032.66;;;7.82;40.25
77303;BME280;66363;49.828;7.856;2023-03-01T08:15:27;101032.00;;;6.96;40.40
77303;BME280;66363;49.828;7.856;2023-03-01T08:17:52;101030.84;;;7.44;40.08
77303;BME280;66363;49.828;7.856;2023-03-01T08:20:18;101024.59;;;7.86;39.16
77303;BME280;66363;49.828;7.856;2023-03-01T08:22:44;101022.22;;;8.00;38.67
77303;BME280;66363;49.828;7.856;2023-03-01T08:25:11;101024.72;;;8.22;38.54
77303;BME280;66363;49.828;7.856;2023-03-01T08:27:36;101022.44;;;8.52;37.70
77303;BME280;66363;49.828;7.856;2023-03-01T08:30:02;101029.63;;;8.67;36.37
77303;BME280;66363;49.828;7.856;2023-03-01T08:32:28;101021.75;;;9.36;34.43
77303;BME280;66363;49.828;7.856;2023-03-01T08:34:54;101028.06;;;9.16;34.62
77303;BME280;66363;49.828;7.856;2023-03-01T08:37:19;101021.69;;;10.20;32.62
77303;BME280;66363;49.828;7.856;2023-03-01T08:39:46;101008.25;;;10.08;33.18
77303;BME280;66363;49.828;7.856;2023-03-01T08:42:12;101014.53;;;11.15;31.69
77303;BME280;66363;49.828;7.856;2023-03-01T08:44:38;101020.59;;;10.87;31.24
77303;BME280;66363;49.828;7.856;2023-03-01T08:47:04;101011.72;;;11.33;30.16
77303;BME280;66363;49.828;7.856;2023-03-01T08:49:29;101014.38;;;10.57;31.33
77303;BME280;66363;49.828;7.856;2023-03-01T08:51:55;101009.41;;;10.97;31.62
77303;BME280;66363;49.828;7.856;2023-03-01T08:54:21;101006.13;;;10.77;32.00
77303;BME280;66363;49.828;7.856;2023-03-01T08:56:48;101015.22;;;11.03;31.29
77303;BME280;66363;49.828;7.856;2023-03-01T08:59:16;101004.44;;;11.95;30.08
77303;BME280;66363;49.828;7.856;2023-03-01T09:01:42;100997.56;;;11.76;29.27
77303;BME280;66363;49.828;7.856;2023-03-01T09:04:07;101003.22;;;12.41;28.98
77303;BME280;66363;49.828;7.856;2023-03-01T09:06:33;101000.56;;;12.41;28.67
77303;BME280;66363;49.828;7.856;2023-03-01T09:08:59;100991.00;;;11.68;29.11
77303;BME280;66363;49.828;7.856;2023-03-01T09:11:24;100978.31;;;11.87;29.49
77303;BME280;66363;49.828;7.856;2023-03-01T09:13:50;100979.72;;;11.93;29.38
77303;BME280;66363;49.828;7.856;2023-03-01T09:16:23;100984.03;;;12.22;27.88
77303;BME280;66363;49.828;7.856;2023-03-01T09:18:50;100973.50;;;12.62;27.83
77303;BME280;66363;49.828;7.856;2023-03-01T09:21:18;100973.84;;;12.43;28.23
77303;BME280;66363;49.828;7.856;2023-03-01T09:23:45;100977.41;;;11.58;29.08
77303;BME280;66363;49.828;7.856;2023-03-01T09:26:13;100973.25;;;12.11;29.24
77303;BME280;66363;49.828;7.856;2023-03-01T09:28:39;100971.38;;;12.67;27.95
77303;BME280;66363;49.828;7.856;2023-03-01T09:31:08;100980.47;;;12.77;27.79
77303;BME280;66363;49.828;7.856;2023-03-01T09:33:35;100974.69;;;13.10;27.64
77303;BME280;66363;49.828;7.856;2023-03-01T09:36:03;100971.16;;;13.74;26.93
77303;BME280;66363;49.828;7.856;2023-03-01T09:38:29;100977.16;;;13.13;27.40
77303;BME280;66363;49.828;7.856;2023-03-01T09:40:55;100972.63;;;13.28;26.90
77303;BME280;66363;49.828;7.856;2023-03-01T09:43:25;100967.22;;;14.66;24.79
77303;BME280;66363;49.828;7.856;2023-03-01T09:45:54;100960.78;;;13.95;26.12
77303;BME280;66363;49.828;7.856;2023-03-01T09:48:24;100966.25;;;15.37;24.52
77303;BME280;66363;49.828;7.856;2023-03-01T09:50:52;100969.16;;;14.14;26.20
77303;BME280;66363;49.828;7.856;2023-03-01T09:53:19;100965.44;;;14.04;25.53
77303;BME280;66363;49.828;7.856;2023-03-01T09:55:49;100961.78;;;15.48;24.19
77303;BME280;66363;49.828;7.856;2023-03-01T09:58:33;100978.72;;;14.55;25.32
77303;BME280;66363;49.828;7.856;2023-03-01T10:01:10;100964.31;;;14.92;24.29
77303;BME280;66363;49.828;7.856;2023-03-01T10:03:43;100966.50;;;14.14;26.17
77303;BME280;66363;49.828;7.856;2023-03-01T10:06:15;100966.47;;;15.22;24.79
77303;BME280;66363;49.828;7.856;2023-03-01T10:08:52;100960.97;;;16.15;23.82
77303;BME280;66363;49.828;7.856;2023-03-01T10:11:22;100947.75;;;16.56;22.58
77303;BME280;66363;49.828;7.856;2023-03-01T10:13:55;100953.56;;;15.96;23.05
77303;BME280;66363;49.828;7.856;2023-03-01T10:16:28;100939.66;;;16.13;23.20
77303;BME280;66363;49.828;7.856;2023-03-01T10:18:59;100934.81;;;16.61;22.26
77303;BME280;66363;49.828;7.856;2023-03-01T10:21:27;100941.28;;;16.05;23.94
77303;BME280;66363;49.828;7.856;2023-03-01T10:23:53;100938.97;;;17.18;22.32
77303;BME280;66363;49.828;7.856;2023-03-01T10:26:41;100931.41;;;16.91;22.44
77303;BME280;66363;49.828;7.856;2023-03-01T10:29:11;100924.69;;;17.18;21.44
77303;BME280;66363;49.828;7.856;2023-03-01T10:31:40;100924.81;;;16.75;22.02
77303;BME280;66363;49.828;7.856;2023-03-01T10:34:10;100913.25;;;16.31;22.56
77303;BME280;66363;49.828;7.856;2023-03-01T10:36:38;100916.94;;;16.08;23.77
77303;BME280;66363;49.828;7.856;2023-03-01T10:39:12;100896.13;;;16.43;22.81
77303;BME280;66363;49.828;7.856;2023-03-01T10:41:52;100899.84;;;17.37;21.12
77303;BME280;66363;49.828;7.856;2023-03-01T10:44:36;100891.09;;;17.14;20.96
77303;BME280;66363;49.828;7.856;2023-03-01T10:47:02;100887.66;;;16.70;22.21
77303;BME280;66363;49.828;7.856;2023-03-01T10:49:27;100887.88;;;17.71;21.70
77303;BME280;66363;49.828;7.856;2023-03-01T10:51:54;100891.56;;;17.49;20.76
77303;BME280;66363;49.828;7.856;2023-03-01T10:54:22;100896.44;;;18.64;20.26
77303;BME280;66363;49.828;7.856;2023-03-01T10:56:52;100891.25;;;18.13;19.92
77303;BME280;66363;49.828;7.856;2023-03-01T10:59:29;100885.09;;;18.42;20.05
77303;BME280;66363;49.828;7.856;2023-03-01T11:02:16;100872.50;;;20.39;18.16
77303;BME280;66363;49.828;7.856;2023-03-01T11:04:57;100876.16;;;19.09;18.46
77303;BME280;66363;49.828;7.856;2023-03-01T11:07:24;100885.53;;;19.88;18.67
77303;BME280;66363;49.828;7.856;2023-03-01T11:09:50;100880.47;;;20.03;18.22
77303;BME280;66363;49.828;7.856;2023-03-01T11:12:16;100883.44;;;20.10;18.66
77303;BME280;66363;49.828;7.856;2023-03-01T11:14:47;100872.91;;;18.57;19.11
77303;BME280;66363;49.828;7.856;2023-03-01T11:17:16;100859.84;;;19.94;18.79
77303;BME280;66363;49.828;7.856;2023-03-01T11:19:42;100866.88;;;20.05;18.22
77303;BME280;66363;49.828;7.856;2023-03-01T11:22:12;100867.88;;;19.39;18.26
77303;BME280;66363;49.828;7.856;2023-03-01T11:24:42;100868.38;;;19.89;18.09
77303;BME280;66363;49.828;7.856;2023-03-01T11:27:17;100880.41;;;18.53;20.20
77303;BME280;66363;49.828;7.856;2023-03-01T11:29:45;100864.88;;;19.79;18.56
77303;BME280;66363;49.828;7.856;2023-03-01T11:32:13;100870.09;;;19.90;18.54
77303;BME280;66363;49.828;7.856;2023-03-01T11:34:45;100865.81;;;19.14;19.39
77303;BME280;66363;49.828;7.856;2023-03-01T11:37:22;100861.13;;;19.16;19.56
77303;BME280;66363;49.828;7.856;2023-03-01T11:39:59;100856.78;;;20.07;18.78
77303;BME280;66363;49.828;7.856;2023-03-01T11:42:38;100864.16;;;18.36;19.59
77303;BME280;66363;49.828;7.856;2023-03-01T11:45:10;100855.47;;;20.38;18.01
77303;BME280;66363;49.828;7.856;2023-03-01T11:48:01;100849.09;;;19.67;19.23
77303;BME280;66363;49.828;7.856;2023-03-01T11:50:31;100838.81;;;18.86;18.97
77303;BME280;66363;49.828;7.856;2023-03-01T11:53:13;100839.56;;;19.99;18.38
77303;BME280;66363;49.828;7.856;2023-03-01T11:55:55;100839.31;;;20.99;17.62
77303;BME280;66363;49.828;7.856;2023-03-01T11:58:38;100837.84;;;18.58;20.10
77303;BME280;66363;49.828;7.856;2023-03-01T12:01:18;100826.28;;;19.88;18.39
77303;BME280;66363;49.828;7.856;2023-03-01T12:04:20;100824.78;;;21.94;16.35
77303;BME280;66363;49.828;7.856;2023-03-01T12:06:54;100816.56;;;21.28;17.06
77303;BME280;66363;49.828;7.856;2023-03-01T12:09:34;100814.25;;;20.46;17.69
77303;BME280;66363;49.828;7.856;2023-03-01T12:15:04;100802.56;;;19.74;19.03
77303;BME280;66363;49.828;7.856;2023-03-01T12:17:52;100796.59;;;20.69;17.33
77303;BME280;66363;49.828;7.856;2023-03-01T12:20:25;100789.22;;;21.23;17.10
77303;BME280;66363;49.828;7.856;2023-03-01T12:23:02;100790.91;;;20.19;18.53
77303;BME280;66363;49.828;7.856;2023-03-01T12:25:34;100781.03;;;20.27;18.19
77303;BME280;66363;49.828;7.856;2023-03-01T12:28:41;100786.13;;;20.92;17.97
77303;BME280;66363;49.828;7.856;2023-03-01T12:31:32;100775.78;;;19.36;19.17
77303;BME280;66363;49.828;7.856;2023-03-01T12:34:11;100782.72;;;21.16;17.62
77303;BME280;66363;49.828;7.856;2023-03-01T12:36:52;100758.25;;;22.91;15.91
77303;BME280;66363;49.828;7.856;2023-03-01T12:39:36;100752.63;;;21.79;16.62
77303;BME280;66363;49.828;7.856;2023-03-01T12:42:12;100756.00;;;21.81;16.84
77303;BME280;66363;49.828;7.856;2023-03-01T12:44:54;100746.88;;;21.90;16.55
77303;BME280;66363;49.828;7.856;2023-03-01T12:47:34;100752.00;;;21.43;16.95
77303;BME280;66363;49.828;7.856;2023-03-01T12:50:11;100746.44;;;21.44;16.48
77303;BME280;66363;49.828;7.856;2023-03-01T12:52:44;100740.38;;;21.50;16.54
77303;BME280;66363;49.828;7.856;2023-03-01T12:55:23;100729.97;;;21.72;16.83
77303;BME280;66363;49.828;7.856;2023-03-01T12:57:56;100720.25;;;22.35;16.45
77303;BME280;66363;49.828;7.856;2023-03-01T13:00:27;100710.00;;;24.26;14.29